sensor_id;sensor_type;location;lat;lon;timestamp;temperature;humidity
34542;DHT22;20784;51.332;12.410;2024-02-26T00:00:27;4.60;99.90
34542;DHT22;20784;51.332;12.410;2024-02-26T00:02:56;4.50;99.90
34542;DHT22;20784;51.332;12.410;2024-02-26T00:05:22;4.50;99.90
34542;DHT22;20784;51.332;12.410;2024-02-26T00:07:47;4.60;99.90
34542;DHT22;20784;51.332;12.410;2024-02-26T00:10:14;4.60;99.90
34542;DHT22;20784;51.332;12.410;2024-02-26T00:12:47;4.70;99.90
34542;DHT22;20784;51.332;12.410;2024-02-26T00:15:19;4.70;99.90
34542;DHT22;20784;51.332;12.410;2024-02-26T00:17:47;4.80;99.90
34542;DHT22;20784;51.332;12.410;2024-02-26T00:20:33;4.80;99.90
34542;DHT22;20784;51.332;12.410;2024-02-26T00:22:59;4.90;99.90
34542;DHT22;20784;51.332;12.410;2024-02-26T00:25:27;4.80;99.90
34542;DHT22;20784;51.332;12.410;2024-02-26T00:30:43;4.80;99.90
34542;DHT22;20784;51.332;12.410;2024-02-26T00:33:35;4.80;99.90
34542;DHT22;20784;51.332;12.410;2024-02-26T00:36:11;4.80;99.90
34542;DHT22;20784;51.332;12.410;2024-02-26T00:38:54;4.80;99.90
34542;DHT22;20784;51.332;12.410;2024-02-26T00:41:37;4.80;99.90
34542;DHT22;20784;51.332;12.410;2024-02-26T00:44:13;4.70;99.90
34542;DHT22;20784;51.332;12.410;2024-02-26T00:47:00;4.70;99.90
34542;DHT22;20784;51.332;12.410;2024-02-26T00:49:48;4.70;99.90
34542;DHT22;20784;51.332;12.410;2024-02-26T00:52:26;4.70;99.90
34542;DHT22;20784;51.332;12.410;2024-02-26T00:54:52;4.90;99.90
34542;DHT22;20784;51.332;12.410;2024-02-26T01:00:44;5.00;99.90
34542;DHT22;20784;51.332;12.410;2024-02-26T01:03:35;4.80;99.90
34542;DHT22;20784;51.332;12.410;2024-02-26T01:06:16;4.80;99.90
34542;DHT22;20784;51.332;12.410;2024-02-26T01:08:53;4.80;99.90
34542;DHT22;20784;51.332;12.410;2024-02-26T01:11:48;4.70;99.90
34542;DHT22;20784;51.332;12.410;2024-02-26T01:14:16;5.00;99.90
34542;DHT22;20784;51.332;12.410;2024-02-26T01:16:59;4.80;99.90
34542;DHT22;20784;51.332;12.410;2024-02-26T01:19:28;4.70;99.90
34542;DHT22;20784;51.332;12.410;2024-02-26T01:21:59;4.80;99.90
34542;DHT22;20784;51.332;12.410;2024-02-26T01:24:27;4.80;99.90
34542;DHT22;20784;51.332;12.410;2024-02-26T01:26:53;4.80;99.90
34542;DHT22;20784;51.332;12.410;2024-02-26T01:29:19;4.90;99.90
34542;DHT22;20784;51.332;12.410;2024-02-26T01:31:52;4.70;99.90
34542;DHT22;20784;51.332;12.410;2024-02-26T01:34:27;4.70;99.90
34542;DHT22;20784;51.332;12.410;2024-02-26T01:37:05;4.70;99.90
34542;DHT22;20784;51.332;12.410;2024-02-26T01:39:31;4.80;99.90
34542;DHT22;20784;51.332;12.410;2024-02-26T01:41:59;4.70;99.90
34542;DHT22;20784;51.332;12.410;2024-02-26T01:44:26;4.70;99.90
34542;DHT22;20784;51.332;12.410;2024-02-26T01:46:52;4.70;99.90
34542;DHT22;20784;51.332;12.410;2024-02-26T01:49:25;4.70;99.90
34542;DHT22;20784;51.332;12.410;2024-02-26T01:51:51;4.90;99.90
34542;DHT22;20784;51.332;12.410;2024-02-26T01:54:24;4.70;99.90
34542;DHT22;20784;51.332;12.410;2024-02-26T01:56:59;4.70;99.90
34542;DHT22;20784;51.332;12.410;2024-02-26T02:00:04;4.70;99.90
34542;DHT22;20784;51.332;12.410;2024-02-26T02:02:39;4.70;99.90
34542;DHT22;20784;51.332;12.410;2024-02-26T02:05:08;4.70;99.90
34542;DHT22;20784;51.332;12.410;2024-02-26T02:14:19;4.70;99.90
34542;DHT22;20784;51.332;12.410;2024-02-26T02:19:47;4.60;99.90
34542;DHT22;20784;51.332;12.410;2024-02-26T02:23:03;4.50;99.90
34542;DHT22;20784;51.332;12.410;2024-02-26T02:25:40;4.50;99.90
34542;DHT22;20784;51.332;12.410;2024-02-26T02:28:19;4.40;99.90
34542;DHT22;20784;51.332;12.410;2024-02-26T02:31:05;4.50;99.90
34542;DHT22;20784;51.332;12.410;2024-02-26T02:36:22;4.40;99.90
34542;DHT22;20784;51.332;12.410;2024-02-26T02:38:54;4.40;99.90
34542;DHT22;20784;51.332;12.410;2024-02-26T02:41:43;4.30;99.90
34542;DHT22;20784;51.332;12.410;2024-02-26T02:44:11;4.50;99.90
34542;DHT22;20784;51.332;12.410;2024-02-26T02:46:47;4.40;99.90
34542;DHT22;20784;51.332;12.410;2024-02-26T02:52:07;4.50;99.90
34542;DHT22;20784;51.332;12.410;2024-02-26T02:54:55;4.40;99.90
34542;DHT22;20784;51.332;12.410;2024-02-26T02:58:00;4.30;99.90
34542;DHT22;20784;51.332;12.410;2024-02-26T03:03:35;4.40;99.90
34542;DHT22;20784;51.332;12.410;2024-02-26T03:06:02;4.30;99.90
34542;DHT22;20784;51.332;12.410;2024-02-26T03:08:37;4.30;99.90
34542;DHT22;20784;51.332;12.410;2024-02-26T03:11:07;4.30;99.90
34542;DHT22;20784;51.332;12.410;2024-02-26T03:13:32;4.20;99.90
34542;DHT22;20784;51.332;12.410;2024-02-26T03:16:03;4.20;99.90
34542;DHT22;20784;51.332;12.410;2024-02-26T03:18:47;4.10;99.90
34542;DHT22;20784;51.332;12.410;2024-02-26T03:21:15;4.20;99.90
34542;DHT22;20784;51.332;12.410;2024-02-26T03:23:44;4.10;99.90
34542;DHT22;20784;51.332;12.410;2024-02-26T03:26:09;4.10;99.90
34542;DHT22;20784;51.332;12.410;2024-02-26T03:28:56;4.20;99.90
34542;DHT22;20784;51.332;12.410;2024-02-26T03:31:22;4.10;99.90
34542;DHT22;20784;51.332;12.410;2024-02-26T03:33:47;4.10;99.90
34542;DHT22;20784;51.332;12.410;2024-02-26T03:36:15;4.20;99.90
34542;DHT22;20784;51.332;12.410;2024-02-26T03:38:42;4.00;99.90
34542;DHT22;20784;51.332;12.410;2024-02-26T03:41:07;4.00;99.90
34542;DHT22;20784;51.332;12.410;2024-02-26T03:43:34;4.00;99.90
34542;DHT22;20784;51.332;12.410;2024-02-26T03:45:59;4.10;99.90
34542;DHT22;20784;51.332;12.410;2024-02-26T03:48:25;3.90;99.90
34542;DHT22;20784;51.332;12.410;2024-02-26T03:50:51;3.90;99.90
34542;DHT22;20784;51.332;12.410;2024-02-26T03:53:16;3.90;99.90
34542;DHT22;20784;51.332;12.410;2024-02-26T03:55:42;3.80;99.90
34542;DHT22;20784;51.332;12.410;2024-02-26T03:58:07;3.90;99.90
34542;DHT22;20784;51.332;12.410;2024-02-26T04:00:34;3.80;99.90
34542;DHT22;20784;51.332;12.410;2024-02-26T04:03:00;3.80;99.90
34542;DHT22;20784;51.332;12.410;2024-02-26T04:05:25;3.80;99.90
34542;DHT22;20784;51.332;12.410;2024-02-26T04:07:51;3.70;99.90
34542;DHT22;20784;51.332;12.410;2024-02-26T04:10:20;3.70;99.90
34542;DHT22;20784;51.332;12.410;2024-02-26T04:12:45;3.70;99.90
34542;DHT22;20784;51.332;12.410;2024-02-26T04:15:12;3.70;99.90
34542;DHT22;20784;51.332;12.410;2024-02-26T04:17:38;3.80;99.90
34542;DHT22;20784;51.332;12.410;2024-02-26T04:20:04;3.70;99.90
34542;DHT22;20784;51.332;12.410;2024-02-26T04:22:33;3.70;99.90
34542;DHT22;20784;51.332;12.410;2024-02-26T04:24:59;3.70;99.90
34542;DHT22;20784;51.332;12.410;2024-02-26T04:27:25;3.70;99.90
34542;DHT22;20784;51.332;12.410;2024-02-26T04:29:50;3.60;99.90
34542;DHT22;20784;51.332;12.410;2024-02-26T04:32:16;3.60;99.90
34542;DHT22;20784;51.332;12.410;2024-02-26T04:34:41;3.60;99.90
34542;DHT22;20784;51.332;12.410;2024-02-26T04:37:07;3.60;99.90
34542;DHT22;20784;51.332;12.410;2024-02-26T04:39:33;3.50;99.90
34542;DHT22;20784;51.332;12.410;2024-02-26T04:41:58;3.60;99.90
34542;DHT22;20784;51.332;12.410;2024-02-26T04:44:24;3.60;99.90
34542;DHT22;20784;51.332;12.410;2024-02-26T04:46:52;3.60;99.90
34542;DHT22;20784;51.332;12.410;2024-02-26T04:49:23;3.60;99.90
34542;DHT22;20784;51.332;12.410;2024-02-26T04:51:48;3.70;99.90
34542;DHT22;20784;51.332;12.410;2024-02-26T04:54:14;3.60;99.90
34542;DHT22;20784;51.332;12.410;2024-02-26T04:56:40;3.60;99.90
34542;DHT22;20784;51.332;12.410;2024-02-26T04:59:05;3.60;99.90
34542;DHT22;20784;51.332;12.410;2024-02-26T05:01:31;3.70;99.90
34542;DHT22;20784;51.332;12.410;2024-02-26T05:03:57;3.60;99.90
34542;DHT22;20784;51.332;12.410;2024-02-26T05:06:22;3.60;99.90
34542;DHT22;20784;51.332;12.410;2024-02-26T05:08:48;3.60;99.90
34542;DHT22;20784;51.332;12.410;2024-02-26T05:11:13;3.60;99.90
34542;DHT22;20784;51.332;12.410;2024-02-26T05:13:41;3.60;99.90
34542;DHT22;20784;51.332;12.410;2024-02-26T05:16:06;3.50;99.90
34542;DHT22;20784;51.332;12.410;2024-02-26T05:18:32;3.50;99.90
34542;DHT22;20784;51.332;12.410;2024-02-26T05:20:58;3.50;99.90
34542;DHT22;20784;51.332;12.410;2024-02-26T05:23:23;3.50;99.90
34542;DHT22;20784;51.332;12.410;2024-02-26T05:25:49;3.60;99.90
34542;DHT22;20784;51.332;12.410;2024-02-26T05:28:14;3.70;99.90
34542;DHT22;20784;51.332;12.410;2024-02-26T05:30:48;3.60;99.90
34542;DHT22;20784;51.332;12.410;2024-02-26T05:33:13;3.60;99.90
34542;DHT22;20784;51.332;12.410;2024-02-26T05:35:42;3.70;99.90
34542;DHT22;20784;51.332;12.410;2024-02-26T05:38:07;3.60;99.90
34542;DHT22;20784;51.332;12.410;2024-02-26T05:40:33;3.60;99.90
34542;DHT22;20784;51.332;12.410;2024-02-26T05:43:00;3.50;99.90
34542;DHT22;20784;51.332;12.410;2024-02-26T05:45:32;3.50;99.90
34542;DHT22;20784;51.332;12.410;2024-02-26T05:48:00;3.50;99.90
34542;DHT22;20784;51.332;12.410;2024-02-26T05:50:28;3.50;99.90
34542;DHT22;20784;51.332;12.410;2024-02-26T05:53:00;3.50;99.90
34542;DHT22;20784;51.332;12.410;2024-02-26T05:55:26;3.50;99.90
34542;DHT22;20784;51.332;12.410;2024-02-26T05:58:02;3.50;99.90
34542;DHT22;20784;51.332;12.410;2024-02-26T06:00:27;3.60;99.90
34542;DHT22;20784;51.332;12.410;2024-02-26T06:02:58;3.60;99.90
34542;DHT22;20784;51.332;12.410;2024-02-26T06:06:12;3.40;99.90
34542;DHT22;20784;51.332;12.410;2024-02-26T06:08:39;3.50;99.90
34542;DHT22;20784;51.332;12.410;2024-02-26T06:14:03;3.50;99.90
34542;DHT22;20784;51.332;12.410;2024-02-26T06:16:33;3.40;99.90
34542;DHT22;20784;51.332;12.410;2024-02-26T06:21:53;3.50;99.90
34542;DHT22;20784;51.332;12.410;2024-02-26T06:24:22;3.40;99.90
34542;DHT22;20784;51.332;12.410;2024-02-26T06:26:56;3.50;99.90
34542;DHT22;20784;51.332;12.410;2024-02-26T06:29:22;3.60;99.90
34542;DHT22;20784;51.332;12.410;2024-02-26T06:31:59;3.50;99.90
34542;DHT22;20784;51.332;12.410;2024-02-26T06:34:27;3.50;99.90
34542;DHT22;20784;51.332;12.410;2024-02-26T06:36:53;3.50;99.90
34542;DHT22;20784;51.332;12.410;2024-02-26T06:39:18;3.50;99.90
34542;DHT22;20784;51.332;12.410;2024-02-26T06:41:44;3.60;99.90
34542;DHT22;20784;51.332;12.410;2024-02-26T06:44:12;3.70;99.90
34542;DHT22;20784;51.332;12.410;2024-02-26T06:46:38;3.70;99.90
34542;DHT22;20784;51.332;12.410;2024-02-26T06:49:04;3.80;99.90
34542;DHT22;20784;51.332;12.410;2024-02-26T06:51:30;3.90;99.90
34542;DHT22;20784;51.332;12.410;2024-02-26T06:53:56;3.90;99.90
34542;DHT22;20784;51.332;12.410;2024-02-26T06:56:21;4.00;99.90
34542;DHT22;20784;51.332;12.410;2024-02-26T06:58:47;4.20;99.90
34542;DHT22;20784;51.332;12.410;2024-02-26T07:01:13;4.20;99.90
34542;DHT22;20784;51.332;12.410;2024-02-26T07:03:40;4.30;99.90
34542;DHT22;20784;51.332;12.410;2024-02-26T07:06:06;4.70;99.90
34542;DHT22;20784;51.332;12.410;2024-02-26T07:08:32;5.20;99.90
34542;DHT22;20784;51.332;12.410;2024-02-26T07:10:57;5.40;99.90
34542;DHT22;20784;51.332;12.410;2024-02-26T07:13:23;5.70;99.90
34542;DHT22;20784;51.332;12.410;2024-02-26T07:15:49;6.00;99.90
34542;DHT22;20784;51.332;12.410;2024-02-26T07:18:14;6.10;99.90
34542;DHT22;20784;51.332;12.410;2024-02-26T07:20:40;6.40;99.90
34542;DHT22;20784;51.332;12.410;2024-02-26T07:23:05;6.50;99.90
34542;DHT22;20784;51.332;12.410;2024-02-26T07:25:35;6.70;99.90
34542;DHT22;20784;51.332;12.410;2024-02-26T07:28:04;7.10;99.90
34542;DHT22;20784;51.332;12.410;2024-02-26T07:30:30;7.50;99.90
34542;DHT22;20784;51.332;12.410;2024-02-26T07:32:55;8.00;99.90
34542;DHT22;20784;51.332;12.410;2024-02-26T07:35:22;8.20;99.90
34542;DHT22;20784;51.332;12.410;2024-02-26T07:37:50;8.00;99.90
34542;DHT22;20784;51.332;12.410;2024-02-26T07:40:16;7.70;99.90
34542;DHT22;20784;51.332;12.410;2024-02-26T07:42:41;7.50;99.90
34542;DHT22;20784;51.332;12.410;2024-02-26T07:45:07;7.40;99.90
34542;DHT22;20784;51.332;12.410;2024-02-26T07:47:33;7.50;99.90
34542;DHT22;20784;51.332;12.410;2024-02-26T07:50:01;7.50;99.90
34542;DHT22;20784;51.332;12.410;2024-02-26T07:52:27;7.60;99.90
34542;DHT22;20784;51.332;12.410;2024-02-26T07:54:52;7.60;99.90
34542;DHT22;20784;51.332;12.410;2024-02-26T07:57:18;7.80;99.90
34542;DHT22;20784;51.332;12.410;2024-02-26T07:59:50;8.00;99.90
34542;DHT22;20784;51.332;12.410;2024-02-26T08:02:16;8.20;99.90
34542;DHT22;20784;51.332;12.410;2024-02-26T08:04:41;8.50;99.90
34542;DHT22;20784;51.332;12.410;2024-02-26T08:07:07;8.70;99.90
34542;DHT22;20784;51.332;12.410;2024-02-26T08:09:32;9.10;99.90
34542;DHT22;20784;51.332;12.410;2024-02-26T08:11:58;9.40;99.90
34542;DHT22;20784;51.332;12.410;2024-02-26T08:14:24;9.60;99.90
34542;DHT22;20784;51.332;12.410;2024-02-26T08:16:49;9.70;99.90
34542;DHT22;20784;51.332;12.410;2024-02-26T08:19:15;9.90;99.90
34542;DHT22;20784;51.332;12.410;2024-02-26T08:21:43;9.90;99.90
34542;DHT22;20784;51.332;12.410;2024-02-26T08:24:09;10.00;99.90
34542;DHT22;20784;51.332;12.410;2024-02-26T08:26:35;10.00;99.90
34542;DHT22;20784;51.332;12.410;2024-02-26T08:29:00;10.20;99.90
34542;DHT22;20784;51.332;12.410;2024-02-26T08:31:26;10.20;99.90
34542;DHT22;20784;51.332;12.410;2024-02-26T08:33:53;10.30;99.90
34542;DHT22;20784;51.332;12.410;2024-02-26T08:36:18;10.50;99.90
34542;DHT22;20784;51.332;12.410;2024-02-26T08:38:44;10.90;99.90
34542;DHT22;20784;51.332;12.410;2024-02-26T08:41:09;11.20;99.90
34542;DHT22;20784;51.332;12.410;2024-02-26T08:43:35;11.70;99.90
34542;DHT22;20784;51.332;12.410;2024-02-26T08:46:01;11.90;99.90
34542;DHT22;20784;51.332;12.410;2024-02-26T08:48:26;12.00;99.90
34542;DHT22;20784;51.332;12.410;2024-02-26T08:50:54;12.30;99.90
34542;DHT22;20784;51.332;12.410;2024-02-26T08:53:20;12.80;99.90
34542;DHT22;20784;51.332;12.410;2024-02-26T08:55:49;13.40;99.90
34542;DHT22;20784;51.332;12.410;2024-02-26T08:58:18;13.80;99.90
34542;DHT22;20784;51.332;12.410;2024-02-26T09:00:44;14.10;99.90
34542;DHT22;20784;51.332;12.410;2024-02-26T09:03:09;14.40;99.90
34542;DHT22;20784;51.332;12.410;2024-02-26T09:05:35;14.90;99.90
34542;DHT22;20784;51.332;12.410;2024-02-26T09:08:00;15.20;99.90
34542;DHT22;20784;51.332;12.410;2024-02-26T09:10:26;15.60;99.90
34542;DHT22;20784;51.332;12.410;2024-02-26T09:12:54;15.90;99.90
34542;DHT22;20784;51.332;12.410;2024-02-26T09:15:20;16.30;99.90
34542;DHT22;20784;51.332;12.410;2024-02-26T09:17:46;16.50;99.90
34542;DHT22;20784;51.332;12.410;2024-02-26T09:20:15;16.50;99.90
34542;DHT22;20784;51.332;12.410;2024-02-26T09:22:45;16.70;99.90
34542;DHT22;20784;51.332;12.410;2024-02-26T09:25:11;16.60;99.90
34542;DHT22;20784;51.332;12.410;2024-02-26T09:27:39;16.10;99.90
34542;DHT22;20784;51.332;12.410;2024-02-26T09:30:05;16.10;99.90
34542;DHT22;20784;51.332;12.410;2024-02-26T09:32:31;16.50;99.90
34542;DHT22;20784;51.332;12.410;2024-02-26T09:34:57;16.50;99.90
34542;DHT22;20784;51.332;12.410;2024-02-26T09:37:22;16.50;99.90
34542;DHT22;20784;51.332;12.410;2024-02-26T09:39:48;16.80;99.90
34542;DHT22;20784;51.332;12.410;2024-02-26T09:42:14;17.20;99.90
34542;DHT22;20784;51.332;12.410;2024-02-26T09:44:40;17.60;99.90
34542;DHT22;20784;51.332;12.410;2024-02-26T09:47:11;17.20;99.90
34542;DHT22;20784;51.332;12.410;2024-02-26T09:49:38;17.10;99.90
34542;DHT22;20784;51.332;12.410;2024-02-26T09:52:08;16.90;99.90
34542;DHT22;20784;51.332;12.410;2024-02-26T09:54:35;16.70;99.90
34542;DHT22;20784;51.332;12.410;2024-02-26T09:57:02;16.60;99.90
34542;DHT22;20784;51.332;12.410;2024-02-26T09:59:39;16.60;99.90
34542;DHT22;20784;51.332;12.410;2024-02-26T10:02:12;16.40;99.90
34542;DHT22;20784;51.332;12.410;2024-02-26T10:04:39;16.20;99.90
34542;DHT22;20784;51.332;12.410;2024-02-26T10:07:10;15.90;99.90
34542;DHT22;20784;51.332;12.410;2024-02-26T10:09:36;15.70;99.90
34542;DHT22;20784;51.332;12.410;2024-02-26T10:12:03;15.70;99.90
34542;DHT22;20784;51.332;12.410;2024-02-26T10:14:28;15.90;99.90
34542;DHT22;20784;51.332;12.410;2024-02-26T10:16:54;16.20;99.90
34542;DHT22;20784;51.332;12.410;2024-02-26T10:19:29;16.40;99.90
34542;DHT22;20784;51.332;12.410;2024-02-26T10:21:59;16.60;99.90
34542;DHT22;20784;51.332;12.410;2024-02-26T10:24:29;16.50;99.90
34542;DHT22;20784;51.332;12.410;2024-02-26T10:26:56;16.50;99.90
34542;DHT22;20784;51.332;12.410;2024-02-26T10:29:23;16.50;99.90
34542;DHT22;20784;51.332;12.410;2024-02-26T10:31:51;16.40;99.90
34542;DHT22;20784;51.332;12.410;2024-02-26T10:34:17;16.20;99.90
34542;DHT22;20784;51.332;12.410;2024-02-26T10:36:42;16.20;99.90
34542;DHT22;20784;51.332;12.410;2024-02-26T10:39:09;16.00;99.90
34542;DHT22;20784;51.332;12.410;2024-02-26T10:41:42;15.60;99.90
34542;DHT22;20784;51.332;12.410;2024-02-26T10:44:11;15.30;99.90
34542;DHT22;20784;51.332;12.410;2024-02-26T10:46:41;15.20;99.90
34542;DHT22;20784;51.332;12.410;2024-02-26T10:49:13;14.90;99.90
34542;DHT22;20784;51.332;12.410;2024-02-26T10:51:40;14.70;99.90
34542;DHT22;20784;51.332;12.410;2024-02-26T10:54:09;14.70;99.90
34542;DHT22;20784;51.332;12.410;2024-02-26T10:56:38;14.60;99.90
34542;DHT22;20784;51.332;12.410;2024-02-26T10:59:07;14.40;99.90
34542;DHT22;20784;51.332;12.410;2024-02-26T11:01:35;14.20;99.90
34542;DHT22;20784;51.332;12.410;2024-02-26T11:04:05;14.00;99.90
34542;DHT22;20784;51.332;12.410;2024-02-26T11:06:31;13.90;99.90
34542;DHT22;20784;51.332;12.410;2024-02-26T11:09:01;13.80;99.90
34542;DHT22;20784;51.332;12.410;2024-02-26T11:11:27;13.80;99.90
34542;DHT22;20784;51.332;12.410;2024-02-26T11:13:54;13.80;99.90
34542;DHT22;20784;51.332;12.410;2024-02-26T11:16:21;13.90;99.90
34542;DHT22;20784;51.332;12.410;2024-02-26T11:18:48;13.80;99.90
34542;DHT22;20784;51.332;12.410;2024-02-26T11:21:17;13.80;99.90
34542;DHT22;20784;51.332;12.410;2024-02-26T11:23:53;13.80;99.90
34542;DHT22;20784;51.332;12.410;2024-02-26T11:26:19;14.10;99.90
34542;DHT22;20784;51.332;12.410;2024-02-26T11:28:52;13.90;99.90
34542;DHT22;20784;51.332;12.410;2024-02-26T11:31:18;13.80;99.90
34542;DHT22;20784;51.332;12.410;2024-02-26T11:33:54;13.70;99.90
34542;DHT22;20784;51.332;12.410;2024-02-26T11:36:24;13.60;99.90
34542;DHT22;20784;51.332;12.410;2024-02-26T11:38:50;13.30;99.90
34542;DHT22;20784;51.332;12.410;2024-02-26T11:41:20;13.10;99.90
34542;DHT22;20784;51.332;12.410;2024-02-26T11:43:53;13.20;99.90
34542;DHT22;20784;51.332;12.410;2024-02-26T11:46:31;13.10;99.90
34542;DHT22;20784;51.332;12.410;2024-02-26T11:49:30;13.00;99.90
34542;DHT22;20784;51.332;12.410;2024-02-26T11:51:52;12.90;99.90
34542;DHT22;20784;51.332;12.410;2024-02-26T11:54:51;12.90;99.90
34542;DHT22;20784;51.332;12.410;2024-02-26T12:02:41;12.70;99.90
34542;DHT22;20784;51.332;12.410;2024-02-26T12:05:10;12.70;99.90
34542;DHT22;20784;51.332;12.410;2024-02-26T12:07:47;12.60;99.90
34542;DHT22;20784;51.332;12.410;2024-02-26T12:10:20;12.50;99.90
34542;DHT22;20784;51.332;12.410;2024-02-26T12:13:00;12.50;99.90
34542;DHT22;20784;51.332;12.410;2024-02-26T12:15:32;12.50;99.90
34542;DHT22;20784;51.332;12.410;2024-02-26T12:18:02;12.60;99.90
34542;DHT22;20784;51.332;12.410;2024-02-26T12:20:28;12.70;99.90
34542;DHT22;20784;51.332;12.410;2024-02-26T12:22:56;12.70;99.90
34542;DHT22;20784;51.332;12.410;2024-02-26T12:25:24;12.70;99.90
34542;DHT22;20784;51.332;12.410;2024-02-26T12:27:51;12.70;99.90
34542;DHT22;20784;51.332;12.410;2024-02-26T12:30:17;12.60;99.90
34542;DHT22;20784;51.332;12.410;2024-02-26T12:32:47;12.50;99.90
34542;DHT22;20784;51.332;12.410;2024-02-26T12:35:13;12.40;99.90
34542;DHT22;20784;51.332;12.410;2024-02-26T12:37:42;12.20;99.90
34542;DHT22;20784;51.332;12.410;2024-02-26T12:40:08;12.20;99.90
34542;DHT22;20784;51.332;12.410;2024-02-26T12:42:54;12.20;99.90
34542;DHT22;20784;51.332;12.410;2024-02-26T12:45:23;12.20;99.90
34542;DHT22;20784;51.332;12.410;2024-02-26T12:47:51;12.30;99.90
34542;DHT22;20784;51.332;12.410;2024-02-26T12:50:17;12.20;99.90
34542;DHT22;20784;51.332;12.410;2024-02-26T12:52:47;12.30;99.90
34542;DHT22;20784;51.332;12.410;2024-02-26T12:55:15;12.30;99.90
34542;DHT22;20784;51.332;12.410;2024-02-26T12:57:41;12.40;99.90
34542;DHT22;20784;51.332;12.410;2024-02-26T13:00:13;12.50;99.90
34542;DHT22;20784;51.332;12.410;2024-02-26T13:02:41;12.50;99.90
34542;DHT22;20784;51.332;12.410;2024-02-26T13:05:10;12.60;99.90
34542;DHT22;20784;51.332;12.410;2024-02-26T13:07:41;12.70;99.90
34542;DHT22;20784;51.332;12.410;2024-02-26T13:10:07;12.70;99.90
34542;DHT22;20784;51.332;12.410;2024-02-26T13:12:33;12.80;99.90
34542;DHT22;20784;51.332;12.410;2024-02-26T13:15:00;12.90;99.90
34542;DHT22;20784;51.332;12.410;2024-02-26T13:17:26;12.90;99.90
34542;DHT22;20784;51.332;12.410;2024-02-26T13:19:54;12.80;99.90
34542;DHT22;20784;51.332;12.410;2024-02-26T13:22:25;12.70;99.90
34542;DHT22;20784;51.332;12.410;2024-02-26T13:24:55;12.80;99.90
34542;DHT22;20784;51.332;12.410;2024-02-26T13:27:22;12.70;99.90
34542;DHT22;20784;51.332;12.410;2024-02-26T13:29:47;12.70;99.90
34542;DHT22;20784;51.332;12.410;2024-02-26T13:32:13;12.60;99.90
34542;DHT22;20784;51.332;12.410;2024-02-26T13:34:41;12.70;99.90
34542;DHT22;20784;51.332;12.410;2024-02-26T13:37:07;12.80;99.90
34542;DHT22;20784;51.332;12.410;2024-02-26T13:39:34;12.90;99.90
34542;DHT22;20784;51.332;12.410;2024-02-26T13:42:00;13.00;99.90
34542;DHT22;20784;51.332;12.410;2024-02-26T13:44:25;12.90;99.90
34542;DHT22;20784;51.332;12.410;2024-02-26T13:46:51;12.90;99.90
34542;DHT22;20784;51.332;12.410;2024-02-26T13:49:16;12.90;99.90
34542;DHT22;20784;51.332;12.410;2024-02-26T13:51:42;13.00;99.90
34542;DHT22;20784;51.332;12.410;2024-02-26T13:54:08;13.00;99.90
34542;DHT22;20784;51.332;12.410;2024-02-26T13:56:35;13.10;99.90
34542;DHT22;20784;51.332;12.410;2024-02-26T13:59:01;13.10;99.90
34542;DHT22;20784;51.332;12.410;2024-02-26T14:01:27;13.00;99.90
34542;DHT22;20784;51.332;12.410;2024-02-26T14:03:53;12.90;99.90
34542;DHT22;20784;51.332;12.410;2024-02-26T14:06:22;13.00;99.90
34542;DHT22;20784;51.332;12.410;2024-02-26T14:08:48;13.00;99.90
34542;DHT22;20784;51.332;12.410;2024-02-26T14:11:14;12.90;99.90
34542;DHT22;20784;51.332;12.410;2024-02-26T14:13:42;12.90;99.90
34542;DHT22;20784;51.332;12.410;2024-02-26T14:16:08;12.90;99.90
34542;DHT22;20784;51.332;12.410;2024-02-26T14:18:36;12.90;99.90
34542;DHT22;20784;51.332;12.410;2024-02-26T14:21:01;12.80;99.90
34542;DHT22;20784;51.332;12.410;2024-02-26T14:23:32;12.80;99.90
34542;DHT22;20784;51.332;12.410;2024-02-26T14:26:01;12.60;99.90
34542;DHT22;20784;51.332;12.410;2024-02-26T14:28:27;12.60;99.90
34542;DHT22;20784;51.332;12.410;2024-02-26T14:30:54;12.50;99.90
34542;DHT22;20784;51.332;12.410;2024-02-26T14:33:20;12.40;99.90
34542;DHT22;20784;51.332;12.410;2024-02-26T14:35:46;12.40;99.90
34542;DHT22;20784;51.332;12.410;2024-02-26T14:38:12;12.40;99.90
34542;DHT22;20784;51.332;12.410;2024-02-26T14:40:40;12.50;99.90
34542;DHT22;20784;51.332;12.410;2024-02-26T14:43:08;12.40;99.90
34542;DHT22;20784;51.332;12.410;2024-02-26T14:45:41;12.40;99.90
34542;DHT22;20784;51.332;12.410;2024-02-26T14:48:07;12.30;99.90
34542;DHT22;20784;51.332;12.410;2024-02-26T14:50:36;12.30;99.90
34542;DHT22;20784;51.332;12.410;2024-02-26T14:53:02;12.30;99.90
34542;DHT22;20784;51.332;12.410;2024-02-26T14:55:28;12.20;99.90
34542;DHT22;20784;51.332;12.410;2024-02-26T14:57:53;12.20;99.90
34542;DHT22;20784;51.332;12.410;2024-02-26T15:00:19;12.20;99.90
34542;DHT22;20784;51.332;12.410;2024-02-26T15:02:45;12.10;99.90
34542;DHT22;20784;51.332;12.410;2024-02-26T15:05:11;12.10;99.90
34542;DHT22;20784;51.332;12.410;2024-02-26T15:07:40;12.10;99.90
34542;DHT22;20784;51.332;12.410;2024-02-26T15:10:09;12.10;99.90
34542;DHT22;20784;51.332;12.410;2024-02-26T15:12:38;12.00;99.90
34542;DHT22;20784;51.332;12.410;2024-02-26T15:15:09;12.00;99.90
34542;DHT22;20784;51.332;12.410;2024-02-26T15:17:47;11.90;99.90
34542;DHT22;20784;51.332;12.410;2024-02-26T15:20:14;11.80;99.90
34542;DHT22;20784;51.332;12.410;2024-02-26T15:22:49;11.80;99.90
34542;DHT22;20784;51.332;12.410;2024-02-26T15:25:15;11.70;99.90
34542;DHT22;20784;51.332;12.410;2024-02-26T15:27:47;11.70;99.90
34542;DHT22;20784;51.332;12.410;2024-02-26T15:30:16;11.70;99.90
34542;DHT22;20784;51.332;12.410;2024-02-26T15:32:42;11.70;99.90
34542;DHT22;20784;51.332;12.410;2024-02-26T15:35:09;11.40;99.90
34542;DHT22;20784;51.332;12.410;2024-02-26T15:44:21;11.40;99.90
34542;DHT22;20784;51.332;12.410;2024-02-26T15:46:59;11.60;99.90
34542;DHT22;20784;51.332;12.410;2024-02-26T15:49:48;11.40;99.90
34542;DHT22;20784;51.332;12.410;2024-02-26T15:52:46;11.40;99.90
34542;DHT22;20784;51.332;12.410;2024-02-26T15:55:49;11.40;99.90
34542;DHT22;20784;51.332;12.410;2024-02-26T15:58:31;11.30;99.90
34542;DHT22;20784;51.332;12.410;2024-02-26T16:01:38;11.30;99.90
34542;DHT22;20784;51.332;12.410;2024-02-26T16:04:19;11.30;99.90
34542;DHT22;20784;51.332;12.410;2024-02-26T16:06:51;11.30;99.90
34542;DHT22;20784;51.332;12.410;2024-02-26T16:09:24;11.30;99.90
34542;DHT22;20784;51.332;12.410;2024-02-26T16:15:06;11.20;99.90
34542;DHT22;20784;51.332;12.410;2024-02-26T16:17:41;11.20;99.90
34542;DHT22;20784;51.332;12.410;2024-02-26T16:20:24;11.10;99.90
34542;DHT22;20784;51.332;12.410;2024-02-26T16:22:57;11.10;99.90